Tompa, Russia
Current Conditions -  °F | °C
As of 7:00 PM on Sunday 21 Dec 2014 (Local Time) from UIUU Reporting Station
Clear Clear  
Wind Chill:   Ceiling: Unl
Heat Index: 16°   Visibility: 6mi
Dew Point: 10°   Wind: 7mph
Humidity: 79%   Direction: 250°WSW
Pressure: 30.06"   Gusts: NA
Location:  55.13°N, 109.78°E
Report Text: UIUU 211100Z 25003MPS 220V290 9999 SKC M09/M12 Q1018 NOSIG RMKQFE719/0959 26493035
Loading
Personal Weather Stations






























Interactive Weather Map New forecast layout! Learn more

10-Day Weather Forecast

Advertisements
Track Severe Weather on mobile